Time;durP1;ratioP1;P1;durP2;ratioP2;P2;SDS_P1;SDS_P2;PMS_P1;PMS_P2;Temp;Humidity;BMP_temperature;BMP_pressure;BME280_temperature;BME280_humidity;BME280_pressure;Samples;Min_cycle;Max_cycle;Signal;HPM_P1;HPM_P2
2020/12/31 00:02:01;;;;;;;7.38;5.88;;;11.40;81.20;;;;;;5124346;28;20023;-44
2020/12/31 00:04:27;;;;;;;7.55;4.85;;;11.30;81.10;;;;;;5124586;28;20023;-45
2020/12/31 00:06:53;;;;;;;6.65;5.03;;;11.30;81.00;;;;;;5124040;28;20023;-45
2020/12/31 00:09:19;;;;;;;5.80;5.20;;;11.30;81.00;;;;;;5105890;28;20041;-44
2020/12/31 00:11:45;;;;;;;7.50;5.70;;;11.30;81.00;;;;;;5124359;28;20039;-44
2020/12/31 00:14:12;;;;;;;7.32;5.47;;;11.30;81.10;;;;;;5124288;28;20023;-44
2020/12/31 00:16:38;;;;;;;5.35;4.68;;;11.30;81.10;;;;;;5123711;28;20047;-45
2020/12/31 00:19:04;;;;;;;6.80;5.38;;;11.30;81.10;;;;;;5124131;28;20066;-44
2020/12/31 00:21:30;;;;;;;5.43;3.85;;;11.30;81.10;;;;;;5123974;28;20043;-44
2020/12/31 00:23:56;;;;;;;7.85;5.47;;;11.30;81.00;;;;;;5124161;28;20121;-44
2020/12/31 00:26:22;;;;;;;7.55;5.75;;;11.30;81.10;;;;;;5105352;28;20027;-46
2020/12/31 00:28:49;;;;;;;7.78;5.22;;;11.30;81.00;;;;;;5123985;28;20020;-45
2020/12/31 00:31:15;;;;;;;5.32;4.63;;;11.30;80.90;;;;;;5105845;28;20032;-49
2020/12/31 00:33:41;;;;;;;8.30;5.72;;;11.30;81.00;;;;;;5103481;28;20020;-44
2020/12/31 00:36:07;;;;;;;6.65;5.13;;;11.30;81.00;;;;;;5084770;28;20036;-44
2020/12/31 00:38:34;;;;;;;7.72;5.35;;;11.30;80.90;;;;;;5103222;28;20044;-43
2020/12/31 00:41:01;;;;;;;7.75;5.57;;;11.30;80.90;;;;;;5103179;28;20022;-45
2020/12/31 00:43:28;;;;;;;7.15;5.45;;;11.30;80.90;;;;;;5109035;28;20590;-44
2020/12/31 00:45:54;;;;;;;5.80;4.93;;;11.30;80.90;;;;;;5105034;28;20761;-45
2020/12/31 00:48:21;;;;;;;7.35;5.03;;;11.30;80.90;;;;;;5123701;28;20127;-44
2020/12/31 00:50:47;;;;;;;7.22;5.25;;;11.30;81.00;;;;;;5084858;28;20036;-44
2020/12/31 00:53:13;;;;;;;6.00;4.80;;;11.30;80.90;;;;;;5103110;28;20020;-44
2020/12/31 00:55:39;;;;;;;6.17;5.00;;;11.30;80.90;;;;;;5103224;28;20044;-45
2020/12/31 00:58:06;;;;;;;7.03;4.95;;;11.20;80.90;;;;;;5105555;28;20028;-44
2020/12/31 01:00:32;;;;;;;7.15;5.45;;;11.20;80.90;;;;;;5114807;28;20057;-44
2020/12/31 01:02:59;;;;;;;7.88;5.88;;;11.20;80.80;;;;;;5112359;28;20031;-44
2020/12/31 01:05:25;;;;;;;5.93;4.07;;;11.20;80.70;;;;;;5102890;28;20028;-45
2020/12/31 01:07:52;;;;;;;6.15;5.30;;;11.20;80.70;;;;;;5102505;28;20024;-44
2020/12/31 01:10:19;;;;;;;6.55;5.38;;;11.20;80.10;;;;;;5103039;28;20388;-44
2020/12/31 01:12:45;;;;;;;5.90;4.90;;;11.20;80.00;;;;;;5102902;28;20035;-44
2020/12/31 01:15:11;;;;;;;6.80;5.35;;;11.20;80.00;;;;;;5102692;28;20301;-43
2020/12/31 01:17:37;;;;;;;8.43;5.53;;;11.20;80.20;;;;;;5102511;28;20052;-44
2020/12/31 01:20:04;;;;;;;6.53;5.63;;;11.20;80.10;;;;;;5102639;28;20036;-44
2020/12/31 01:22:30;;;;;;;7.55;5.57;;;11.20;80.00;;;;;;5102269;28;20028;-44
2020/12/31 01:24:56;;;;;;;6.22;5.15;;;11.20;80.00;;;;;;5102723;28;20107;-44
2020/12/31 01:27:23;;;;;;;8.52;5.30;;;11.20;80.10;;;;;;5102377;28;20028;-44
2020/12/31 01:29:49;;;;;;;7.45;5.47;;;11.20;80.10;;;;;;5102478;28;20048;-44
2020/12/31 01:32:15;;;;;;;6.28;5.03;;;11.20;80.00;;;;;;5102413;28;20042;-44
2020/12/31 01:34:41;;;;;;;7.75;5.90;;;11.20;79.80;;;;;;5102757;28;20168;-45
2020/12/31 01:37:07;;;;;;;6.55;5.55;;;11.10;79.80;;;;;;5102135;28;20041;-44
2020/12/31 01:39:33;;;;;;;7.65;5.55;;;11.10;79.90;;;;;;5102430;28;20044;-44
2020/12/31 01:42:04;;;;;;;7.95;5.72;;;11.20;80.00;;;;;;5095367;28;20020;-44
2020/12/31 01:44:30;;;;;;;7.32;5.38;;;11.10;79.80;;;;;;5102209;28;20043;-43
2020/12/31 01:46:59;;;;;;;6.65;5.22;;;11.10;79.90;;;;;;5102136;28;20023;-44
2020/12/31 01:49:25;;;;;;;8.38;5.63;;;11.10;80.00;;;;;;5108805;28;20088;-44
2020/12/31 01:51:51;;;;;;;9.50;5.80;;;11.10;80.10;;;;;;5104349;28;20024;-43
2020/12/31 01:54:18;;;;;;;6.90;5.50;;;11.10;80.00;;;;;;5104352;28;20031;-43
2020/12/31 01:56:45;;;;;;;8.05;5.80;;;11.10;80.10;;;;;;5122458;28;20031;-43
2020/12/31 01:59:12;;;;;;;6.72;5.50;;;11.00;80.10;;;;;;5103899;28;20043;-44
2020/12/31 02:01:38;;;;;;;8.23;5.70;;;11.00;80.30;;;;;;5087678;28;20023;-44
2020/12/31 02:04:04;;;;;;;7.47;5.30;;;11.00;79.80;;;;;;5122814;28;20047;-43
2020/12/31 02:06:30;;;;;;;7.43;5.70;;;11.00;79.70;;;;;;5115256;28;20118;-44
2020/12/31 02:08:57;;;;;;;7.03;5.45;;;11.00;79.80;;;;;;5067106;28;20050;-44
2020/12/31 02:11:24;;;;;;;6.82;5.45;;;11.00;79.90;;;;;;5102371;28;20045;-43
2020/12/31 02:13:50;;;;;;;6.95;5.60;;;11.00;79.90;;;;;;5102379;28;20028;-43
2020/12/31 02:16:38;;;;;;;8.50;5.53;;;11.00;80.00;;;;;;5102291;28;20024;-43
2020/12/31 02:19:07;;;;;;;6.78;5.55;;;11.00;79.80;;;;;;5101922;28;20044;-44
2020/12/31 02:21:37;;;;;;;6.85;5.53;;;11.00;80.00;;;;;;5102056;28;20043;-43
2020/12/31 02:24:07;;;;;;;6.22;5.38;;;11.00;79.70;;;;;;5083911;28;20058;-43
2020/12/31 02:26:34;;;;;;;7.63;5.75;;;11.00;79.90;;;;;;5102288;28;20024;-44
2020/12/31 02:29:01;;;;;;;7.13;5.30;;;10.90;79.80;;;;;;5101904;28;20111;-43
2020/12/31 02:31:27;;;;;;;7.47;6.00;;;10.90;79.90;;;;;;5101944;28;20115;-43
2020/12/31 02:33:57;;;;;;;6.53;5.55;;;11.00;79.80;;;;;;5105310;28;20032;-43
2020/12/31 02:36:28;;;;;;;6.50;5.80;;;10.90;80.30;;;;;;5111988;28;20039;-43
2020/12/31 02:38:54;;;;;;;6.78;5.60;;;10.90;79.90;;;;;;5107469;28;20063;-43
2020/12/31 02:41:21;;;;;;;4.20;3.80;;;10.90;79.90;;;;;;5122611;28;20024;-44
2020/12/31 02:43:47;;;;;;;9.55;5.95;;;11.00;79.90;;;;;;5117034;28;20055;-43
2020/12/31 02:46:14;;;;;;;7.68;5.80;;;10.90;79.80;;;;;;5126051;28;20028;-43
2020/12/31 02:48:41;;;;;;;8.18;5.55;;;10.90;79.80;;;;;;5125533;28;20031;-43
2020/12/31 02:51:07;;;;;;;6.32;5.15;;;10.90;79.90;;;;;;5105512;28;20048;-44
2020/12/31 02:53:33;;;;;;;6.70;5.77;;;10.90;79.90;;;;;;5105342;28;20058;-43
2020/12/31 02:56:00;;;;;;;7.80;5.47;;;10.90;79.90;;;;;;5105322;28;20885;-44
2020/12/31 02:58:26;;;;;;;8.55;7.25;;;10.90;79.80;;;;;;5122686;28;20031;-43
2020/12/31 03:00:53;;;;;;;6.47;5.32;;;10.80;79.80;;;;;;5110666;28;20070;-43
2020/12/31 03:03:19;;;;;;;6.63;5.55;;;10.80;79.70;;;;;;5110552;28;20024;-43
2020/12/31 03:05:45;;;;;;;8.32;5.72;;;10.80;79.70;;;;;;5124725;28;20442;-43
2020/12/31 03:08:11;;;;;;;7.55;5.55;;;10.90;79.70;;;;;;5104749;28;20035;-43
2020/12/31 03:10:37;;;;;;;6.88;5.60;;;10.80;79.60;;;;;;5105224;28;20024;-44
2020/12/31 03:13:03;;;;;;;7.18;5.82;;;10.80;79.80;;;;;;5105288;28;20524;-44
2020/12/31 03:15:30;;;;;;;6.65;5.57;;;10.80;79.60;;;;;;5105214;28;20055;-43
2020/12/31 03:17:56;;;;;;;8.13;6.05;;;10.80;79.80;;;;;;5104684;28;20075;-44
2020/12/31 03:20:22;;;;;;;7.30;5.70;;;10.80;79.60;;;;;;5104885;28;20032;-43
2020/12/31 03:22:48;;;;;;;8.35;6.05;;;10.80;79.60;;;;;;5104702;28;20028;-43
2020/12/31 03:25:14;;;;;;;7.05;5.68;;;10.80;79.70;;;;;;5104791;28;20594;-43
2020/12/31 03:27:40;;;;;;;8.55;5.95;;;10.80;79.70;;;;;;5104820;28;20024;-44
2020/12/31 03:30:06;;;;;;;7.40;5.38;;;10.80;79.90;;;;;;5104602;28;20141;-43
2020/12/31 03:32:32;;;;;;;7.55;5.65;;;10.80;79.60;;;;;;5104556;28;20032;-43
2020/12/31 03:34:59;;;;;;;9.00;5.80;;;10.80;79.70;;;;;;5104765;28;20028;-43
2020/12/31 03:37:25;;;;;;;7.88;5.70;;;10.80;79.70;;;;;;5119282;28;20421;-43
2020/12/31 03:39:52;;;;;;;7.63;5.53;;;10.70;79.70;;;;;;5124685;28;20111;-43
2020/12/31 03:42:18;;;;;;;6.50;5.28;;;10.70;79.60;;;;;;5125067;28;20039;-43
2020/12/31 03:44:44;;;;;;;8.25;5.88;;;10.80;79.70;;;;;;5110360;28;20028;-43
2020/12/31 03:47:10;;;;;;;8.45;5.88;;;10.70;79.60;;;;;;5104252;28;20028;-43
2020/12/31 03:49:37;;;;;;;8.20;6.23;;;10.70;79.80;;;;;;5112237;28;20073;-44
2020/12/31 03:52:03;;;;;;;7.10;6.03;;;10.70;79.80;;;;;;5124483;28;20020;-43
2020/12/31 03:54:29;;;;;;;7.32;6.20;;;10.70;79.60;;;;;;5124748;28;20024;-43
2020/12/31 03:56:55;;;;;;;8.10;6.28;;;10.70;79.70;;;;;;5121351;28;20020;-42
2020/12/31 03:59:22;;;;;;;7.97;5.85;;;10.70;79.60;;;;;;5122185;28;20039;-43
2020/12/31 04:01:48;;;;;;;7.45;5.63;;;10.70;79.60;;;;;;5105229;28;20032;-43
2020/12/31 04:04:14;;;;;;;7.93;5.82;;;10.70;79.70;;;;;;5124433;28;20040;-44
2020/12/31 04:06:41;;;;;;;7.55;5.95;;;10.70;79.60;;;;;;5115493;28;20020;-43
2020/12/31 04:09:07;;;;;;;8.65;6.18;;;10.70;79.60;;;;;;5103692;28;20028;-43
2020/12/31 04:11:33;;;;;;;7.90;6.13;;;10.70;79.70;;;;;;5103921;28;20020;-43
2020/12/31 04:13:59;;;;;;;8.13;6.50;;;10.60;79.70;;;;;;5103927;28;20036;-43
2020/12/31 04:16:25;;;;;;;7.72;6.40;;;10.60;79.60;;;;;;5103732;28;20017;-43
2020/12/31 04:18:51;;;;;;;8.43;5.85;;;10.70;79.60;;;;;;5103215;28;20040;-43
2020/12/31 04:21:21;;;;;;;6.68;5.88;;;10.60;79.50;;;;;;5103714;28;20036;-43
2020/12/31 04:23:49;;;;;;;7.10;5.97;;;10.60;79.60;;;;;;5103541;28;20035;-43
2020/12/31 04:26:15;;;;;;;7.90;6.15;;;10.60;79.90;;;;;;5103623;28;20084;-43
2020/12/31 04:28:41;;;;;;;7.55;6.03;;;10.60;79.60;;;;;;5103729;28;20459;-43
2020/12/31 04:31:07;;;;;;;8.70;6.22;;;10.60;79.90;;;;;;5103164;28;20028;-43
2020/12/31 04:33:33;;;;;;;7.95;6.35;;;10.60;79.70;;;;;;5085281;28;20067;-43
2020/12/31 04:35:59;;;;;;;9.88;6.78;;;10.60;79.60;;;;;;5106352;28;20066;-43
2020/12/31 04:38:26;;;;;;;8.95;6.35;;;10.60;79.60;;;;;;5123528;28;20028;-44
2020/12/31 04:40:52;;;;;;;8.00;5.97;;;10.60;79.70;;;;;;5123727;28;20031;-43
2020/12/31 04:43:18;;;;;;;7.97;6.30;;;10.60;79.70;;;;;;5123676;28;20112;-44
2020/12/31 04:45:44;;;;;;;8.60;6.18;;;10.60;79.70;;;;;;5105331;28;20043;-42
2020/12/31 04:48:21;;;;;;;7.47;5.93;;;10.60;79.60;;;;;;5121949;28;20077;-44
2020/12/31 04:50:48;;;;;;;9.43;6.33;;;10.60;79.90;;;;;;5104142;28;20097;-43
2020/12/31 04:53:15;;;;;;;9.07;6.13;;;10.60;79.90;;;;;;5102995;28;20040;-43
2020/12/31 04:55:44;;;;;;;8.38;6.10;;;10.50;79.60;;;;;;5102304;28;20777;-43
2020/12/31 04:58:12;;;;;;;8.18;6.32;;;10.60;79.80;;;;;;5105630;28;20057;-43
2020/12/31 05:00:38;;;;;;;8.77;6.53;;;10.50;79.60;;;;;;5115397;28;20043;-43
2020/12/31 05:03:07;;;;;;;9.75;6.90;;;10.50;79.60;;;;;;5123262;28;20016;-43
2020/12/31 05:05:34;;;;;;;8.40;6.57;;;10.50;79.60;;;;;;5102531;28;20392;-44
2020/12/31 05:08:00;;;;;;;10.20;6.43;;;10.50;79.60;;;;;;5103156;28;20016;-43
2020/12/31 05:10:27;;;;;;;10.63;6.63;;;10.50;79.60;;;;;;5102714;28;20552;-43
2020/12/31 05:12:59;;;;;;;8.37;6.70;;;10.50;79.70;;;;;;5084870;28;20060;-43
2020/12/31 05:15:39;;;;;;;8.38;6.20;;;10.50;80.10;;;;;;5102546;28;20024;-43
2020/12/31 05:18:25;;;;;;;7.90;6.88;;;10.50;79.80;;;;;;5084162;28;20115;-43
2020/12/31 05:20:55;;;;;;;10.15;6.30;;;10.50;79.70;;;;;;5102609;28;20618;-43
2020/12/31 05:23:30;;;;;;;7.78;6.45;;;10.50;79.90;;;;;;5084571;28;20111;-42
2020/12/31 05:25:57;;;;;;;10.68;6.53;;;10.50;79.70;;;;;;5102488;28;20032;-44
2020/12/31 05:28:33;;;;;;;7.70;5.97;;;10.50;79.70;;;;;;5102695;28;20055;-44
2020/12/31 05:31:00;;;;;;;8.77;6.65;;;10.50;79.70;;;;;;5117847;28;20038;-43
2020/12/31 05:33:30;;;;;;;8.77;6.75;;;10.50;79.80;;;;;;5122923;28;20035;-44
2020/12/31 05:36:18;;;;;;;9.27;6.55;;;10.50;79.70;;;;;;5120230;28;20031;-43
2020/12/31 05:39:05;;;;;;;8.88;6.70;;;10.50;79.70;;;;;;5102283;28;20028;-43
2020/12/31 05:41:33;;;;;;;9.55;6.85;;;10.50;79.80;;;;;;5102353;28;20020;-43
2020/12/31 05:44:00;;;;;;;6.93;5.68;;;10.50;79.80;;;;;;5102453;28;20038;-43
2020/12/31 05:46:27;;;;;;;10.50;6.95;;;10.50;79.80;;;;;;5102402;28;20074;-43
2020/12/31 05:48:57;;;;;;;9.07;6.13;;;10.50;80.00;;;;;;5102668;28;20096;-43
2020/12/31 05:51:33;;;;;;;9.65;6.68;;;10.50;79.80;;;;;;5104464;28;20028;-43
2020/12/31 05:54:12;;;;;;;10.07;6.78;;;10.50;79.90;;;;;;5104924;28;20483;-43
2020/12/31 05:56:42;;;;;;;8.68;6.20;;;10.50;79.80;;;;;;5102410;28;20025;-43
2020/12/31 05:59:29;;;;;;;8.18;6.72;;;10.50;79.80;;;;;;5102181;28;20064;-43
2020/12/31 06:02:01;;;;;;;10.05;6.90;;;10.50;79.80;;;;;;5104039;28;20041;-43
2020/12/31 06:04:31;;;;;;;8.40;5.97;;;10.40;79.80;;;;;;5122743;28;20073;-43
2020/12/31 06:07:01;;;;;;;9.73;6.75;;;10.40;80.50;;;;;;5111693;28;20039;-43
2020/12/31 06:09:31;;;;;;;9.38;6.95;;;10.40;79.70;;;;;;5106209;28;20027;-43
2020/12/31 06:12:06;;;;;;;8.93;7.03;;;10.40;79.80;;;;;;5105979;28;20027;-43
2020/12/31 06:14:32;;;;;;;9.68;6.68;;;10.40;79.80;;;;;;5106185;28;20020;-43
2020/12/31 06:17:00;;;;;;;8.13;6.73;;;10.40;79.80;;;;;;5106052;28;20078;-43
2020/12/31 06:19:31;;;;;;;8.77;6.30;;;10.40;79.80;;;;;;5106106;28;20328;-43
2020/12/31 06:22:10;;;;;;;7.70;6.47;;;10.40;79.80;;;;;;5087594;28;20090;-43
2020/12/31 06:24:41;;;;;;;7.90;6.38;;;10.40;79.90;;;;;;5105844;28;20032;-43
2020/12/31 06:27:14;;;;;;;9.40;6.90;;;10.40;79.90;;;;;;5105885;28;20031;-43
2020/12/31 06:29:45;;;;;;;11.50;7.07;;;10.40;79.90;;;;;;5110576;28;20016;-43
2020/12/31 06:32:26;;;;;;;10.73;6.50;;;10.40;79.80;;;;;;5126077;28;20043;-43
2020/12/31 06:35:13;;;;;;;8.07;6.45;;;10.40;79.80;;;;;;5109705;28;20031;-43
2020/12/31 06:37:39;;;;;;;8.32;6.65;;;10.40;79.80;;;;;;5108700;28;20035;-43
2020/12/31 06:40:27;;;;;;;9.35;6.55;;;10.40;79.90;;;;;;5108176;28;20091;-43
2020/12/31 06:43:10;;;;;;;7.45;6.38;;;10.40;80.00;;;;;;5114790;28;20043;-42
2020/12/31 06:45:47;;;;;;;8.98;6.47;;;10.40;79.80;;;;;;5105507;28;20028;-43
2020/12/31 06:48:25;;;;;;;9.88;6.93;;;10.40;79.80;;;;;;5105639;28;20024;-43
2020/12/31 06:51:11;;;;;;;8.85;6.15;;;10.40;80.00;;;;;;5123667;28;20023;-42
2020/12/31 06:53:46;;;;;;;8.45;6.93;;;10.40;79.90;;;;;;5125977;28;20015;-43
2020/12/31 06:56:13;;;;;;;8.63;6.82;;;10.40;80.20;;;;;;5125747;28;20038;-43
2020/12/31 06:58:42;;;;;;;8.77;6.60;;;10.40;79.90;;;;;;5107637;28;20417;-43
2020/12/31 07:01:28;;;;;;;9.25;6.88;;;10.40;79.90;;;;;;5090778;28;20484;-43
2020/12/31 07:03:55;;;;;;;8.23;6.70;;;10.40;80.00;;;;;;5116190;28;20035;-43
2020/12/31 07:06:21;;;;;;;9.90;6.72;;;10.40;79.90;;;;;;5116274;28;20139;-43
2020/12/31 07:08:48;;;;;;;9.13;6.63;;;10.40;79.90;;;;;;5105284;28;20035;-43
2020/12/31 07:11:14;;;;;;;9.87;7.07;;;10.40;79.80;;;;;;5105018;28;20032;-43
2020/12/31 07:13:40;;;;;;;9.43;6.97;;;10.40;79.80;;;;;;5105129;28;20046;-44
2020/12/31 07:16:07;;;;;;;8.93;6.45;;;10.40;79.90;;;;;;5105017;28;20047;-44
2020/12/31 07:18:33;;;;;;;7.78;6.30;;;10.40;79.90;;;;;;5104070;28;20044;-43
2020/12/31 07:21:00;;;;;;;8.55;6.95;;;10.40;80.00;;;;;;5104442;28;20061;-43
2020/12/31 07:23:39;;;;;;;8.30;5.30;;;10.40;80.00;;;;;;5104867;28;20500;-43
2020/12/31 07:26:05;;;;;;;8.88;6.18;;;10.30;80.00;;;;;;5104873;28;20028;-43
2020/12/31 07:28:31;;;;;;;9.38;6.80;;;10.40;79.80;;;;;;5104854;28;20024;-43
2020/12/31 07:30:57;;;;;;;9.60;6.95;;;10.30;79.90;;;;;;5119766;28;20559;-43
2020/12/31 07:33:36;;;;;;;9.25;6.82;;;10.30;79.80;;;;;;5124986;28;20057;-43
2020/12/31 07:36:12;;;;;;;10.75;6.78;;;10.30;79.80;;;;;;5121587;28;20028;-42
2020/12/31 07:38:39;;;;;;;9.30;7.00;;;10.30;79.80;;;;;;5086162;28;20139;-43
2020/12/31 07:41:11;;;;;;;7.88;5.32;;;10.30;79.80;;;;;;5086077;28;20032;-43
2020/12/31 07:43:37;;;;;;;9.10;6.50;;;10.30;79.80;;;;;;5115499;28;20032;-43
2020/12/31 07:46:03;;;;;;;9.35;6.63;;;10.30;79.80;;;;;;5109166;28;20035;-43
2020/12/31 07:48:30;;;;;;;10.95;7.03;;;10.30;80.00;;;;;;5104312;28;20040;-43
2020/12/31 07:51:00;;;;;;;13.43;7.73;;;10.30;79.90;;;;;;5123656;28;20122;-42
2020/12/31 07:53:26;;;;;;;10.48;6.88;;;10.30;79.90;;;;;;5106018;28;20375;-42
2020/12/31 07:55:53;;;;;;;11.35;6.85;;;10.30;79.90;;;;;;5124744;28;20076;-43
2020/12/31 07:58:23;;;;;;;9.27;7.03;;;10.30;79.90;;;;;;5124496;28;20119;-43
2020/12/31 08:01:05;;;;;;;10.20;6.93;;;10.30;79.80;;;;;;5110207;28;20024;-43
2020/12/31 08:03:31;;;;;;;11.43;7.32;;;10.30;79.80;;;;;;5106523;28;20079;-44
2020/12/31 08:05:58;;;;;;;10.33;7.10;;;10.30;79.80;;;;;;5104056;28;20666;-42
2020/12/31 08:08:25;;;;;;;7.90;4.80;;;10.30;79.80;;;;;;5103847;28;20020;-43
2020/12/31 08:10:51;;;;;;;8.20;6.75;;;10.30;79.90;;;;;;5103850;28;20171;-43
2020/12/31 08:13:17;;;;;;;10.35;6.53;;;10.30;79.80;;;;;;5069045;28;20027;-43
2020/12/31 08:15:53;;;;;;;9.07;6.90;;;10.30;79.90;;;;;;5103930;28;20047;-43
2020/12/31 08:18:20;;;;;;;10.32;7.32;;;10.30;80.00;;;;;;5103473;28;20048;-43
2020/12/31 08:20:47;;;;;;;12.27;7.78;;;10.30;79.90;;;;;;5121713;28;20069;-43
2020/12/31 08:23:18;;;;;;;10.85;6.75;;;10.30;79.90;;;;;;5088687;28;20020;-43
2020/12/31 08:25:45;;;;;;;9.00;7.03;;;10.30;79.90;;;;;;5106357;28;20035;-43
2020/12/31 08:28:12;;;;;;;9.73;6.53;;;10.30;80.00;;;;;;5123937;28;20035;-43
2020/12/31 08:30:38;;;;;;;9.95;7.22;;;10.30;79.90;;;;;;5111137;28;20039;-43
2020/12/31 08:33:06;;;;;;;9.52;7.10;;;10.30;79.90;;;;;;5103439;28;20028;-42
2020/12/31 08:35:42;;;;;;;12.45;7.03;;;10.30;79.90;;;;;;5103475;28;20091;-43
2020/12/31 08:38:15;;;;;;;10.10;7.15;;;10.30;79.90;;;;;;5103272;28;20767;-42
2020/12/31 08:40:44;;;;;;;7.65;6.43;;;10.30;80.00;;;;;;5103496;28;20574;-43
2020/12/31 08:43:33;;;;;;;11.02;6.78;;;10.30;80.00;;;;;;5102973;28;20024;-43
2020/12/31 08:46:00;;;;;;;10.43;6.90;;;10.30;79.90;;;;;;5086623;28;20135;-42
2020/12/31 08:48:36;;;;;;;8.97;6.93;;;10.30;79.90;;;;;;5085172;28;20024;-43
2020/12/31 08:51:05;;;;;;;9.75;6.65;;;10.30;80.00;;;;;;5123073;28;20031;-43
2020/12/31 08:53:31;;;;;;;9.45;6.78;;;10.30;80.00;;;;;;5121708;28;20028;-43
2020/12/31 08:55:58;;;;;;;11.80;7.35;;;10.30;80.00;;;;;;5103819;28;20081;-43
2020/12/31 08:58:30;;;;;;;10.05;6.55;;;10.30;80.00;;;;;;5103067;28;20042;-43
2020/12/31 09:00:57;;;;;;;11.52;7.30;;;10.30;80.00;;;;;;5116765;28;20027;-43
2020/12/31 09:03:24;;;;;;;10.82;7.10;;;10.30;80.00;;;;;;5111536;28;20032;-42
2020/12/31 09:06:08;;;;;;;8.77;7.03;;;10.20;79.90;;;;;;5102918;28;20047;-43
2020/12/31 09:08:34;;;;;;;9.85;6.75;;;10.30;80.00;;;;;;5121019;28;20030;-43
2020/12/31 09:11:05;;;;;;;10.32;7.57;;;10.20;79.90;;;;;;5123121;28;20027;-43
2020/12/31 09:13:35;;;;;;;9.05;6.90;;;10.20;79.90;;;;;;5122978;28;20024;-43
2020/12/31 09:16:08;;;;;;;11.77;7.18;;;10.30;80.00;;;;;;5123183;28;20028;-43
2020/12/31 09:18:34;;;;;;;12.25;7.82;;;10.30;80.00;;;;;;5123008;28;20104;-43
2020/12/31 09:21:00;;;;;;;11.85;7.60;;;10.30;80.00;;;;;;5103166;28;20027;-43
2020/12/31 09:23:27;;;;;;;11.05;7.35;;;10.30;80.00;;;;;;5084241;28;20783;-43
2020/12/31 09:25:53;;;;;;;9.50;7.22;;;10.30;80.00;;;;;;5102617;28;20032;-43
2020/12/31 09:28:19;;;;;;;10.98;7.35;;;10.20;79.90;;;;;;5102891;28;20024;-43
2020/12/31 09:30:45;;;;;;;9.80;7.18;;;10.20;79.90;;;;;;5116293;28;20036;-43
2020/12/31 09:33:15;;;;;;;10.65;7.18;;;10.20;79.90;;;;;;5104390;28;20065;-42
2020/12/31 09:35:41;;;;;;;10.38;7.15;;;10.20;79.90;;;;;;5104877;28;20047;-43
2020/12/31 09:38:07;;;;;;;10.13;7.75;;;10.20;79.90;;;;;;5102321;28;20035;-43
2020/12/31 09:40:33;;;;;;;12.18;7.20;;;10.20;79.90;;;;;;5102590;28;20778;-43
2020/12/31 09:43:00;;;;;;;10.70;7.38;;;10.20;79.90;;;;;;5101491;28;20024;-42
2020/12/31 09:45:29;;;;;;;11.35;7.75;;;10.20;79.90;;;;;;5102371;28;20036;-43
2020/12/31 09:48:00;;;;;;;11.15;7.50;;;10.20;79.90;;;;;;5084533;28;20032;-43
2020/12/31 09:50:26;;;;;;;8.93;6.78;;;10.20;79.90;;;;;;5117215;28;20024;-43
2020/12/31 09:52:52;;;;;;;9.48;7.15;;;10.20;79.90;;;;;;5122830;28;20038;-43
2020/12/31 09:55:18;;;;;;;10.45;7.40;;;10.20;79.90;;;;;;5104100;28;20051;-43
2020/12/31 09:57:44;;;;;;;10.52;7.45;;;10.20;79.90;;;;;;5107196;28;20032;-42
2020/12/31 10:00:11;;;;;;;11.00;7.68;;;10.20;79.90;;;;;;5111111;28;20039;-43
2020/12/31 10:02:37;;;;;;;10.88;7.50;;;10.20;80.00;;;;;;5122786;28;20027;-43
2020/12/31 10:05:03;;;;;;;10.65;7.38;;;10.20;80.00;;;;;;5122343;28;20127;-43
2020/12/31 10:07:30;;;;;;;10.48;7.57;;;10.20;80.00;;;;;;5113839;28;20589;-42
2020/12/31 10:09:56;;;;;;;12.30;7.50;;;10.20;80.00;;;;;;5122548;28;20024;-43
2020/12/31 10:12:24;;;;;;;12.10;7.65;;;10.20;80.00;;;;;;5122685;28;20019;-43
2020/12/31 10:14:51;;;;;;;12.88;7.72;;;10.20;80.00;;;;;;5122295;28;20028;-43
2020/12/31 10:17:17;;;;;;;11.27;8.02;;;10.20;80.00;;;;;;5122443;28;20047;-44
2020/12/31 10:19:43;;;;;;;12.68;7.85;;;10.20;80.00;;;;;;5113260;28;20107;-44
2020/12/31 10:22:09;;;;;;;11.90;7.88;;;10.20;80.00;;;;;;5102085;28;20036;-43
2020/12/31 10:24:36;;;;;;;14.35;7.15;;;10.20;80.00;;;;;;5101854;28;20032;-43
2020/12/31 10:27:02;;;;;;;11.25;7.70;;;10.20;80.00;;;;;;5102043;28;20135;-42
2020/12/31 10:29:28;;;;;;;11.33;7.77;;;10.20;80.00;;;;;;5105063;28;20042;-42
2020/12/31 10:31:55;;;;;;;12.27;7.40;;;10.20;80.10;;;;;;5122307;28;20030;-45
2020/12/31 10:34:21;;;;;;;7.95;5.22;;;10.20;80.00;;;;;;5104097;28;20049;-42
2020/12/31 10:36:55;;;;;;;12.27;7.93;;;10.20;80.00;;;;;;5094086;28;20056;-43
2020/12/31 10:39:22;;;;;;;12.23;7.85;;;10.20;80.00;;;;;;5101754;28;20044;-42
2020/12/31 10:41:48;;;;;;;13.32;7.35;;;10.20;80.00;;;;;;5118113;28;20012;-43
2020/12/31 10:44:15;;;;;;;13.27;8.38;;;10.20;80.10;;;;;;5122301;28;20035;-42
2020/12/31 10:46:41;;;;;;;11.82;7.75;;;10.20;80.00;;;;;;5122321;28;20027;-43
2020/12/31 10:49:07;;;;;;;10.00;7.75;;;10.20;80.00;;;;;;5118106;28;20027;-43
2020/12/31 10:51:40;;;;;;;12.48;8.40;;;10.20;80.10;;;;;;5101839;28;20035;-44
2020/12/31 10:54:07;;;;;;;11.57;7.47;;;10.10;80.00;;;;;;5101702;28;20024;-43
2020/12/31 10:56:34;;;;;;;7.90;5.50;;;10.10;80.00;;;;;;5106883;28;20053;-42
2020/12/31 10:59:00;;;;;;;12.02;7.47;;;10.10;80.00;;;;;;5125780;28;20067;-42
2020/12/31 11:01:26;;;;;;;13.43;8.20;;;10.20;80.10;;;;;;5106158;28;20020;-43
2020/12/31 11:03:52;;;;;;;13.10;8.07;;;10.10;80.00;;;;;;5105285;28;20032;-42
2020/12/31 11:06:27;;;;;;;11.70;7.60;;;10.10;80.00;;;;;;5104678;28;20031;-43
2020/12/31 11:08:54;;;;;;;12.63;7.97;;;10.20;80.10;;;;;;5105000;28;20046;-43
2020/12/31 11:11:24;;;;;;;13.38;8.10;;;10.10;80.00;;;;;;5105318;28;20063;-42
2020/12/31 11:13:51;;;;;;;13.20;8.00;;;10.10;80.00;;;;;;5105113;28;20056;-42
2020/12/31 11:16:17;;;;;;;11.50;7.82;;;10.10;80.00;;;;;;5104748;28;20024;-43
2020/12/31 11:18:44;;;;;;;13.70;8.50;;;10.10;80.00;;;;;;5106398;28;20080;-43
2020/12/31 11:21:11;;;;;;;13.73;8.38;;;10.10;80.00;;;;;;5125487;28;20024;-42
2020/12/31 11:23:37;;;;;;;13.30;8.48;;;10.10;80.00;;;;;;5106991;28;20026;-43
2020/12/31 11:26:11;;;;;;;15.90;8.23;;;10.10;80.10;;;;;;5125009;28;20032;-43
2020/12/31 11:28:37;;;;;;;12.00;7.18;;;10.10;80.00;;;;;;5125180;28;20027;-43
2020/12/31 11:31:04;;;;;;;12.53;6.00;;;10.10;80.10;;;;;;5108545;28;20024;-44
2020/12/31 11:33:31;;;;;;;12.57;7.75;;;10.10;80.10;;;;;;5104481;28;20036;-42
2020/12/31 11:35:57;;;;;;;15.23;8.82;;;10.10;80.10;;;;;;5104304;28;20108;-42
2020/12/31 11:38:26;;;;;;;13.70;8.68;;;10.10;80.10;;;;;;5103953;28;20765;-43
2020/12/31 11:40:53;;;;;;;12.50;8.07;;;10.10;80.10;;;;;;5104540;28;20058;-42
2020/12/31 11:43:19;;;;;;;13.55;8.07;;;10.10;80.10;;;;;;5104116;28;20027;-42
2020/12/31 11:45:45;;;;;;;16.73;8.70;;;10.10;80.20;;;;;;5105665;28;20420;-43
2020/12/31 11:48:11;;;;;;;15.43;9.10;;;10.10;80.10;;;;;;5114544;28;20058;-43
2020/12/31 11:50:37;;;;;;;14.45;8.32;;;10.10;80.10;;;;;;5120786;28;20115;-42
2020/12/31 11:53:03;;;;;;;13.27;8.18;;;10.10;80.20;;;;;;5124943;28;20057;-42
2020/12/31 11:55:30;;;;;;;13.77;8.02;;;10.10;80.10;;;;;;5124239;28;20034;-43
2020/12/31 11:57:56;;;;;;;14.50;7.93;;;10.10;80.10;;;;;;5124427;28;20024;-43
2020/12/31 12:00:22;;;;;;;13.45;8.25;;;10.10;80.10;;;;;;5113995;28;20028;-43
2020/12/31 12:02:48;;;;;;;13.10;7.93;;;10.10;80.20;;;;;;5106488;28;20020;-43
2020/12/31 12:05:15;;;;;;;13.43;8.18;;;10.10;80.10;;;;;;5103411;28;20067;-42
2020/12/31 12:07:41;;;;;;;12.57;8.65;;;10.10;80.10;;;;;;5104081;28;20024;-43
2020/12/31 12:10:08;;;;;;;14.43;8.23;;;10.10;80.20;;;;;;5103852;28;20028;-43
2020/12/31 12:12:34;;;;;;;14.25;8.40;;;10.10;80.10;;;;;;5104134;28;20028;-42
2020/12/31 12:15:00;;;;;;;12.70;9.07;;;10.10;80.10;;;;;;5104042;28;20483;-44
2020/12/31 12:17:26;;;;;;;14.15;9.35;;;10.10;80.10;;;;;;5103889;28;20044;-43
2020/12/31 12:19:52;;;;;;;12.63;8.32;;;10.10;80.10;;;;;;5095639;28;20080;-42
2020/12/31 12:22:18;;;;;;;12.98;8.35;;;10.10;80.10;;;;;;5123962;28;20032;-43
2020/12/31 12:24:44;;;;;;;15.77;9.00;;;10.10;80.20;;;;;;5124160;28;20063;-43
2020/12/31 12:27:10;;;;;;;13.60;8.43;;;10.10;80.20;;;;;;5124091;28;20529;-42
2020/12/31 12:29:37;;;;;;;12.65;8.48;;;10.10;80.20;;;;;;5119947;28;20036;-42
2020/12/31 12:32:08;;;;;;;13.75;8.63;;;10.10;80.20;;;;;;5103824;28;20161;-42
2020/12/31 12:34:34;;;;;;;15.52;8.70;;;10.10;80.20;;;;;;5086023;28;20028;-42
2020/12/31 12:37:00;;;;;;;12.57;8.20;;;10.00;80.20;;;;;;5103246;28;20073;-43
2020/12/31 12:39:26;;;;;;;14.32;9.00;;;10.10;80.20;;;;;;5103428;28;20036;-43
2020/12/31 12:41:52;;;;;;;13.77;8.70;;;10.10;80.20;;;;;;5114925;28;20033;-42
2020/12/31 12:44:19;;;;;;;15.75;9.13;;;10.10;80.20;;;;;;5107676;28;20031;-43
2020/12/31 12:46:45;;;;;;;14.30;9.00;;;10.10;80.20;;;;;;5103251;28;20028;-42
2020/12/31 12:49:11;;;;;;;14.93;8.82;;;10.10;80.20;;;;;;5089398;28;20643;-43